Time;durP1;ratioP1;P1;durP2;ratioP2;P2;SDS_P1;SDS_P2;PMS_P1;PMS_P2;Temp;Humidity;BMP_temperature;BMP_pressure;BME280_temperature;BME280_humidity;BME280_pressure;Samples;Min_cycle;Max_cycle;Signal;HPM_P1;HPM_P2
2021/05/09 00:02:20;;;;;;;7.35;1.92;;;;;;;18.65;54.60;98889.66;4894069;29;20039;-62
2021/05/09 00:04:45;;;;;;;6.43;2.20;;;;;;;18.66;54.66;98890.47;4907788;29;20033;-62
2021/05/09 00:07:12;;;;;;;6.28;1.95;;;;;;;18.64;54.44;98893.34;4880506;29;20040;-62
2021/05/09 00:09:38;;;;;;;5.40;1.90;;;;;;;18.65;54.24;98892.31;4909510;29;20036;-64
2021/05/09 00:12:05;;;;;;;7.15;1.88;;;;;;;18.64;54.17;98879.28;4896748;29;20055;-64
2021/05/09 00:14:30;;;;;;;7.00;2.33;;;;;;;18.64;54.50;98877.44;4909698;29;20088;-63
2021/05/09 00:16:56;;;;;;;8.45;2.17;;;;;;;18.63;54.31;98881.13;4908262;29;20044;-62
2021/05/09 00:19:21;;;;;;;6.82;1.73;;;;;;;18.63;54.41;98874.97;4895050;29;20047;-62
2021/05/09 00:21:47;;;;;;;8.48;2.28;;;;;;;18.63;54.46;98874.97;4866794;29;20063;-62
2021/05/09 00:24:12;;;;;;;6.78;2.53;;;;;;;18.62;54.63;98879.47;4912838;29;20050;-63
2021/05/09 00:26:38;;;;;;;6.95;1.92;;;;;;;18.61;54.35;98869.06;4896535;29;20044;-64
2021/05/09 00:29:03;;;;;;;7.18;2.38;;;;;;;18.61;54.68;98853.94;4900546;29;20155;-62
2021/05/09 00:31:29;;;;;;;6.20;2.30;;;;;;;18.61;54.33;98847.81;4913500;29;20368;-63
2021/05/09 00:33:54;;;;;;;5.63;1.85;;;;;;;18.61;54.64;98856.59;4895370;29;20028;-62
2021/05/09 00:36:20;;;;;;;6.85;2.10;;;;;;;18.60;54.51;98852.34;4895484;29;20091;-62
2021/05/09 00:38:45;;;;;;;8.95;2.80;;;;;;;18.60;54.60;98851.53;4911696;29;20042;-63
2021/05/09 00:41:11;;;;;;;7.72;2.40;;;;;;;18.60;54.44;98854.19;4896310;29;20067;-62
2021/05/09 00:43:36;;;;;;;7.30;2.28;;;;;;;18.59;54.37;98857.88;4896508;29;20074;-63
2021/05/09 00:46:02;;;;;;;8.00;2.20;;;;;;;18.59;54.14;98853.38;4912477;29;20143;-62
2021/05/09 00:48:27;;;;;;;7.72;2.47;;;;;;;18.60;54.48;98851.53;4896515;29;20148;-65
2021/05/09 00:50:53;;;;;;;7.38;2.10;;;;;;;18.60;54.21;98851.53;4895488;29;20036;-64
2021/05/09 00:53:22;;;;;;;9.48;2.88;;;;;;;18.58;54.23;98843.81;4913503;29;20100;-63
2021/05/09 00:55:48;;;;;;;7.00;2.08;;;;;;;18.59;54.24;98841.94;4912012;29;20028;-66
2021/05/09 00:58:17;;;;;;;8.50;2.45;;;;;;;18.59;54.56;98842.75;4913592;29;20024;-63
2021/05/09 01:00:43;;;;;;;6.07;1.67;;;;;;;18.58;54.47;98846.47;4911937;29;20039;-70
2021/05/09 01:03:10;;;;;;;7.85;2.67;;;;;;;18.58;54.55;98840.34;4890681;29;20040;-64
2021/05/09 01:05:36;;;;;;;6.32;2.15;;;;;;;18.58;54.07;98835.03;4888794;29;20168;-64
2021/05/09 01:08:03;;;;;;;6.75;2.42;;;;;;;18.58;54.15;98833.19;4925382;23;20142;-72
2021/05/09 01:10:29;;;;;;;5.93;2.42;;;;;;;18.57;54.32;98826.25;4931163;29;20040;-72
2021/05/09 01:12:55;;;;;;;6.53;2.47;;;;;;;18.58;54.59;98824.41;4931162;29;20046;-72
2021/05/09 01:15:21;;;;;;;7.28;2.42;;;;;;;18.57;54.54;98818.28;4923859;29;20049;-72
2021/05/09 01:17:47;;;;;;;7.55;2.75;;;;;;;18.56;54.66;98811.38;4926363;29;20043;-72
2021/05/09 01:20:12;;;;;;;5.45;1.90;;;;;;;18.54;54.46;98806.31;4918992;29;20039;-72
2021/05/09 01:22:38;;;;;;;7.00;2.33;;;;;;;18.56;54.81;98803.41;4903730;29;20043;-72
2021/05/09 01:25:07;;;;;;;8.88;2.40;;;;;;;18.55;54.73;98801.78;4925861;29;20070;-72
2021/05/09 01:27:33;;;;;;;6.68;2.40;;;;;;;18.54;54.73;98795.69;4931042;29;20039;-72
2021/05/09 01:29:59;;;;;;;8.02;2.28;;;;;;;18.54;54.98;98792.22;4931965;29;20055;-72
2021/05/09 01:32:24;;;;;;;7.57;2.13;;;;;;;18.54;54.76;98778.94;4929956;29;20122;-72
2021/05/09 01:34:50;;;;;;;6.85;2.03;;;;;;;18.52;54.61;98773.88;4914416;29;20347;-72
2021/05/09 01:37:15;;;;;;;6.55;1.88;;;;;;;18.52;54.70;98781.84;4930916;29;20031;-72
2021/05/09 01:39:41;;;;;;;6.90;2.70;;;;;;;18.54;54.78;98786.91;4931388;29;20463;-72
2021/05/09 01:42:06;;;;;;;7.20;2.20;;;;;;;18.53;54.82;98777.34;4929384;29;20678;-72
2021/05/09 01:44:31;;;;;;;6.45;2.65;;;;;;;18.53;54.61;98780.00;4924627;29;20122;-72
2021/05/09 01:46:57;;;;;;;5.78;2.35;;;;;;;18.53;54.63;98761.41;4891855;29;20039;-72
2021/05/09 01:49:22;;;;;;;6.10;1.98;;;;;;;18.53;54.92;98759.56;4925453;29;20035;-72
2021/05/09 01:51:48;;;;;;;6.00;1.88;;;;;;;18.52;54.76;98762.44;4911403;29;20138;-72
2021/05/09 01:54:13;;;;;;;7.47;2.03;;;;;;;18.53;54.79;98764.06;4911702;29;20407;-72
2021/05/09 01:56:39;;;;;;;5.20;1.75;;;;;;;18.52;54.73;98762.44;4928000;29;20075;-72
2021/05/09 01:59:04;;;;;;;8.48;2.35;;;;;;;18.52;54.71;98749.97;4923758;29;20043;-72
2021/05/09 02:01:30;;;;;;;7.60;2.30;;;;;;;18.51;54.92;98729.78;4933839;29;20451;-72
2021/05/09 02:03:56;;;;;;;6.97;2.17;;;;;;;18.51;55.02;98737.75;4931024;29;20031;-72
2021/05/09 02:06:21;;;;;;;5.57;2.00;;;;;;;18.51;54.80;98745.72;4912944;29;20122;-71
2021/05/09 02:08:47;;;;;;;6.57;2.30;;;;;;;18.51;54.88;98745.72;4914415;29;20039;-72
2021/05/09 02:11:12;;;;;;;5.18;1.98;;;;;;;18.52;54.76;98754.50;4930088;29;20036;-72
2021/05/09 02:13:38;;;;;;;5.68;1.90;;;;;;;18.50;54.73;98749.41;4914041;29;20047;-72
2021/05/09 02:16:04;;;;;;;6.70;1.90;;;;;;;18.51;54.65;98753.69;4913398;29;20046;-72
2021/05/09 02:18:29;;;;;;;6.38;2.00;;;;;;;18.52;54.47;98751.84;4931204;29;20439;-72
2021/05/09 02:20:54;;;;;;;6.15;2.20;;;;;;;18.51;54.76;98745.72;4922851;29;20054;-72
2021/05/09 02:23:20;;;;;;;5.32;2.00;;;;;;;18.52;54.78;98744.66;4913505;29;20040;-73
2021/05/09 02:25:46;;;;;;;6.05;2.33;;;;;;;18.50;54.54;98744.09;4931083;29;20035;-72
2021/05/09 02:28:12;;;;;;;6.35;2.05;;;;;;;18.50;54.57;98744.09;4928016;29;20403;-72
2021/05/09 02:30:37;;;;;;;6.35;1.90;;;;;;;18.51;54.90;98736.94;4925587;29;20742;-72
2021/05/09 02:33:03;;;;;;;6.60;2.50;;;;;;;18.50;54.69;98736.16;4905318;29;20066;-72
2021/05/09 02:35:28;;;;;;;5.75;1.98;;;;;;;18.50;54.88;98724.72;4898446;29;20044;-72
2021/05/09 02:37:53;;;;;;;6.75;2.13;;;;;;;18.50;54.87;98722.88;4915509;29;20068;-72
2021/05/09 02:40:19;;;;;;;6.18;1.85;;;;;;;18.49;54.87;98721.25;4907808;29;20126;-72
2021/05/09 02:42:46;;;;;;;5.70;1.90;;;;;;;18.49;54.65;98729.22;4912926;29;20048;-72
2021/05/09 02:45:12;;;;;;;8.45;2.10;;;;;;;18.51;54.47;98736.94;4918186;29;20036;-72
2021/05/09 02:47:38;;;;;;;6.78;2.15;;;;;;;18.50;54.65;98730.03;4934185;29;20040;-72
2021/05/09 02:50:07;;;;;;;5.45;1.90;;;;;;;18.49;54.64;98718.59;4928931;29;20098;-72
2021/05/09 02:52:33;;;;;;;5.90;2.00;;;;;;;18.49;54.79;98715.16;4909478;29;20038;-72
2021/05/09 02:54:59;;;;;;;5.57;1.75;;;;;;;18.49;55.17;98726.56;4915996;29;20126;-72
2021/05/09 02:57:24;;;;;;;7.50;1.98;;;;;;;18.49;54.89;98718.59;4933661;29;20035;-72
2021/05/09 02:59:50;;;;;;;4.72;1.58;;;;;;;18.49;55.28;98729.22;4899315;29;20043;-72
2021/05/09 03:02:15;;;;;;;5.10;1.90;;;;;;;18.48;55.12;98724.97;4932960;29;20079;-71
2021/05/09 03:04:41;;;;;;;5.70;1.80;;;;;;;18.49;55.35;98720.47;4910146;29;20040;-72
2021/05/09 03:07:06;;;;;;;4.32;1.70;;;;;;;18.48;55.11;98722.31;4890935;29;20643;-72
2021/05/09 03:09:32;;;;;;;5.47;1.85;;;;;;;18.49;55.13;98712.50;4916874;29;20038;-72
2021/05/09 03:11:58;;;;;;;5.50;1.88;;;;;;;18.48;54.98;98714.34;4931859;29;20040;-72
2021/05/09 03:14:24;;;;;;;5.65;1.90;;;;;;;18.48;55.20;98716.19;4932759;29;20054;-72
2021/05/09 03:16:50;;;;;;;4.47;1.63;;;;;;;18.48;54.96;98709.03;4930640;29;20444;-72
2021/05/09 03:19:16;;;;;;;5.93;2.13;;;;;;;18.47;54.91;98698.66;4933089;29;20115;-72
2021/05/09 03:21:42;;;;;;;5.55;1.95;;;;;;;18.48;55.17;98692.31;4914346;29;20436;-72
2021/05/09 03:24:09;;;;;;;4.68;1.60;;;;;;;18.47;55.13;98688.03;4914784;29;20091;-72
2021/05/09 03:26:35;;;;;;;6.32;1.83;;;;;;;18.47;55.16;98682.72;4931801;29;20051;-72
2021/05/09 03:29:00;;;;;;;7.38;2.08;;;;;;;18.47;54.91;98685.38;4914978;29;20537;-72
2021/05/09 03:31:26;;;;;;;6.75;1.98;;;;;;;18.47;54.91;98682.72;4932415;29;20050;-72
2021/05/09 03:33:51;;;;;;;6.22;2.00;;;;;;;18.46;55.18;98687.22;4913811;29;20048;-71
2021/05/09 03:36:17;;;;;;;5.57;1.92;;;;;;;18.48;54.83;98679.03;4932443;29;20039;-71
2021/05/09 03:38:42;;;;;;;6.82;2.35;;;;;;;18.45;55.00;98682.13;4931918;29;20127;-72
2021/05/09 03:41:08;;;;;;;4.40;1.52;;;;;;;18.44;54.94;98676.03;4910516;29;20357;-72
2021/05/09 03:43:33;;;;;;;5.65;1.80;;;;;;;18.46;54.77;98666.00;4924413;29;20043;-72
2021/05/09 03:45:59;;;;;;;5.18;1.48;;;;;;;18.45;55.17;98666.22;4920114;29;20040;-72
2021/05/09 03:48:24;;;;;;;5.40;1.80;;;;;;;18.45;54.95;98668.88;4926308;29;20044;-72
2021/05/09 03:50:50;;;;;;;8.55;2.13;;;;;;;18.45;54.75;98666.22;4927123;29;20110;-72
2021/05/09 03:53:15;;;;;;;5.45;1.83;;;;;;;18.45;55.05;98666.22;4920338;29;20031;-72
2021/05/09 03:55:41;;;;;;;5.82;1.85;;;;;;;18.44;54.96;98661.94;4921681;29;20472;-72
2021/05/09 03:58:07;;;;;;;5.93;2.00;;;;;;;18.43;54.71;98655.84;4926591;29;20119;-72
2021/05/09 04:00:33;;;;;;;5.57;1.60;;;;;;;18.44;54.70;98656.63;4906894;29;20039;-72
2021/05/09 04:02:58;;;;;;;4.75;2.00;;;;;;;18.43;54.62;98653.19;4927662;29;20044;-72
2021/05/09 04:05:24;;;;;;;5.45;2.08;;;;;;;18.43;54.95;98650.53;4913912;29;20039;-72
2021/05/09 04:07:49;;;;;;;5.18;1.75;;;;;;;18.43;55.05;98647.88;4914097;29;20490;-72
2021/05/09 04:10:15;;;;;;;5.80;2.10;;;;;;;18.44;54.92;98643.38;4928597;29;20417;-72
2021/05/09 04:12:40;;;;;;;5.78;1.80;;;;;;;18.42;54.91;98638.28;4921118;29;20567;-72
2021/05/09 04:15:06;;;;;;;5.93;1.83;;;;;;;18.43;54.72;98642.56;4913574;29;20048;-72
2021/05/09 04:17:31;;;;;;;5.90;1.65;;;;;;;18.43;54.99;98628.47;4886354;29;20036;-72
2021/05/09 04:19:57;;;;;;;5.88;1.80;;;;;;;18.42;54.69;98630.34;4914796;29;20400;-72
2021/05/09 04:22:22;;;;;;;6.07;1.70;;;;;;;18.42;54.84;98625.03;4907586;29;20039;-72
2021/05/09 04:24:48;;;;;;;5.30;1.83;;;;;;;18.42;54.87;98619.72;4932198;29;20079;-72
2021/05/09 04:27:13;;;;;;;5.05;1.55;;;;;;;18.42;54.86;98614.41;4914965;29;20040;-72
2021/05/09 04:29:39;;;;;;;5.28;1.60;;;;;;;18.44;54.78;98614.16;4924057;29;20088;-72
2021/05/09 04:32:05;;;;;;;5.47;1.73;;;;;;;18.43;54.70;98621.31;4913326;29;20717;-72
2021/05/09 04:34:30;;;;;;;5.45;2.05;;;;;;;18.43;54.42;98617.88;4906396;29;20104;-72
2021/05/09 04:36:56;;;;;;;4.75;1.63;;;;;;;18.43;54.40;98612.56;4912577;29;20667;-73
2021/05/09 04:39:21;;;;;;;5.05;1.50;;;;;;;18.43;54.35;98612.56;4924260;29;20468;-72
2021/05/09 04:41:47;;;;;;;6.95;1.90;;;;;;;18.42;54.50;98617.06;4896455;29;20059;-72
2021/05/09 04:44:12;;;;;;;6.38;2.30;;;;;;;18.43;54.36;98601.94;4930880;29;20047;-72
2021/05/09 04:46:38;;;;;;;4.20;1.40;;;;;;;18.42;54.67;98603.78;4920292;29;20024;-72
2021/05/09 04:49:03;;;;;;;6.63;2.00;;;;;;;18.43;54.40;98602.75;4915779;29;20123;-72
2021/05/09 04:51:29;;;;;;;4.75;1.90;;;;;;;18.42;54.32;98595.81;4931343;29;20035;-72
2021/05/09 04:53:54;;;;;;;6.78;1.50;;;;;;;18.43;54.39;98591.31;4922206;29;20543;-72
2021/05/09 04:56:20;;;;;;;5.30;1.67;;;;;;;18.42;54.16;98587.84;4925753;29;20107;-72
2021/05/09 04:58:45;;;;;;;4.70;1.60;;;;;;;18.42;54.44;98589.72;4891013;29;20555;-72
2021/05/09 05:01:12;;;;;;;5.75;1.70;;;;;;;18.42;54.28;98600.31;4927027;29;20487;-72
2021/05/09 05:03:38;;;;;;;5.32;1.70;;;;;;;18.40;54.28;98589.97;4910504;29;20447;-72
2021/05/09 05:06:05;;;;;;;6.05;2.00;;;;;;;18.41;54.20;98596.88;4909265;29;20535;-72
2021/05/09 05:08:32;;;;;;;5.43;1.63;;;;;;;18.42;54.41;98600.31;4927148;29;20168;-72
2021/05/09 05:10:59;;;;;;;6.50;2.08;;;;;;;18.42;54.33;98605.63;4922838;29;20035;-72
2021/05/09 05:13:27;;;;;;;4.85;1.67;;;;;;;18.42;54.17;98600.31;4905507;29;20051;-72
2021/05/09 05:15:55;;;;;;;4.03;1.58;;;;;;;18.42;54.33;98601.13;4926669;29;20036;-72
2021/05/09 05:18:21;;;;;;;5.93;1.65;;;;;;;18.41;54.33;98598.72;4906505;29;20035;-72
2021/05/09 05:20:48;;;;;;;5.20;1.60;;;;;;;18.40;54.21;98603.22;4901705;29;20095;-72
2021/05/09 05:23:14;;;;;;;7.15;1.60;;;;;;;18.40;54.05;98595.25;4923682;29;20032;-72
2021/05/09 05:25:40;;;;;;;6.43;1.95;;;;;;;18.40;53.97;98587.31;4930625;29;20028;-72
2021/05/09 05:28:06;;;;;;;5.78;1.80;;;;;;;18.41;53.98;98590.75;4923681;29;20036;-72
2021/05/09 05:30:36;;;;;;;7.47;1.83;;;;;;;18.40;54.20;98589.97;4920698;29;20072;-72
2021/05/09 05:33:01;;;;;;;6.82;2.20;;;;;;;18.40;54.08;98595.25;4927079;29;20031;-71
2021/05/09 05:35:27;;;;;;;6.80;1.77;;;;;;;18.40;54.41;98589.16;4906975;29;20799;-72
2021/05/09 05:37:54;;;;;;;6.45;1.90;;;;;;;18.40;53.93;98581.19;4923921;29;20443;-72
2021/05/09 05:40:22;;;;;;;5.25;1.40;;;;;;;18.39;54.26;98588.34;4924272;29;20051;-72
2021/05/09 05:42:47;;;;;;;5.35;1.67;;;;;;;18.40;53.92;98586.50;4914565;29;20126;-72
2021/05/09 05:45:13;;;;;;;5.90;1.73;;;;;;;18.40;54.04;98583.84;4922541;29;20056;-72
2021/05/09 05:47:38;;;;;;;5.03;1.75;;;;;;;18.40;54.02;98581.19;4895253;29;20096;-72
2021/05/09 05:50:05;;;;;;;4.47;1.55;;;;;;;18.39;54.10;98577.72;4914230;29;20498;-72
2021/05/09 05:52:31;;;;;;;6.32;1.70;;;;;;;18.40;53.98;98587.31;4931822;29;20027;-72
2021/05/09 05:54:57;;;;;;;4.88;1.42;;;;;;;18.39;54.23;98591.00;4901016;29;20079;-72
2021/05/09 05:57:22;;;;;;;5.55;1.73;;;;;;;18.39;54.16;98592.84;4902718;29;20032;-72
2021/05/09 05:59:48;;;;;;;6.18;1.50;;;;;;;18.38;54.26;98596.56;4904185;29;20039;-72
2021/05/09 06:02:13;;;;;;;6.55;1.63;;;;;;;18.38;54.29;98584.09;4929602;29;20040;-72
2021/05/09 06:04:40;;;;;;;5.10;1.63;;;;;;;18.37;53.99;98585.13;4904294;29;20036;-72
2021/05/09 06:07:09;;;;;;;5.05;1.65;;;;;;;18.37;54.01;98579.03;4924375;29;20066;-72
2021/05/09 06:09:35;;;;;;;5.35;1.35;;;;;;;18.36;53.95;98575.56;4923931;29;20136;-73
2021/05/09 06:12:02;;;;;;;6.13;2.17;;;;;;;18.38;54.42;98588.59;4924110;29;20039;-72
2021/05/09 06:14:28;;;;;;;4.97;1.48;;;;;;;18.37;54.20;98581.69;4914236;29;20523;-72
2021/05/09 06:16:53;;;;;;;4.40;1.73;;;;;;;18.36;53.92;98580.88;4927546;29;20047;-72
2021/05/09 06:19:19;;;;;;;7.90;1.67;;;;;;;18.38;54.19;98583.28;4923767;29;20047;-72
2021/05/09 06:21:44;;;;;;;4.88;1.67;;;;;;;18.37;53.97;98582.47;4893598;29;20039;-73
2021/05/09 06:24:10;;;;;;;6.50;1.70;;;;;;;18.37;53.89;98585.13;4922921;29;20036;-72
2021/05/09 06:26:35;;;;;;;4.32;1.58;;;;;;;18.36;54.02;98586.19;4933208;29;20491;-73
2021/05/09 06:29:01;;;;;;;6.00;1.75;;;;;;;18.37;54.03;98587.00;4902646;29;20056;-72
2021/05/09 06:31:26;;;;;;;4.25;1.40;;;;;;;18.37;54.15;98585.13;4927881;29;20032;-72
2021/05/09 06:33:52;;;;;;;4.38;1.55;;;;;;;18.37;54.23;98587.78;4914442;29;20036;-72
2021/05/09 06:36:17;;;;;;;6.10;1.70;;;;;;;18.37;54.02;98576.38;4930202;29;20044;-72
2021/05/09 06:38:43;;;;;;;6.30;1.58;;;;;;;18.36;53.87;98575.56;4916731;29;20126;-72
2021/05/09 06:41:08;;;;;;;4.80;1.45;;;;;;;18.36;54.13;98570.25;4928811;29;20445;-72
2021/05/09 06:43:34;;;;;;;6.32;1.88;;;;;;;18.37;53.89;98590.44;4924535;29;20067;-75
2021/05/09 06:46:01;;;;;;;9.27;1.88;;;;;;;18.37;54.25;98577.19;4921417;29;20071;-71
2021/05/09 06:48:26;;;;;;;4.90;1.75;;;;;;;18.38;54.39;98576.13;4934131;29;20480;-72
2021/05/09 06:50:52;;;;;;;5.28;1.50;;;;;;;18.39;54.32;98574.28;4933336;29;20054;-72
2021/05/09 06:53:17;;;;;;;7.32;2.00;;;;;;;18.38;54.68;98570.81;4934933;29;20047;-69
2021/05/09 06:55:45;;;;;;;6.80;1.45;;;;;;;18.38;54.76;98568.16;4933956;29;20459;-72
2021/05/09 06:58:11;;;;;;;12.00;1.98;;;;;;;18.40;54.67;98562.59;4934272;29;20055;-70
2021/05/09 07:00:37;;;;;;;6.18;1.60;;;;;;;18.41;54.89;98570.31;4927989;29;20114;-73
2021/05/09 07:03:03;;;;;;;9.07;1.70;;;;;;;18.42;54.94;98568.47;4906428;29;20132;-70
2021/05/09 07:05:28;;;;;;;5.40;1.42;;;;;;;18.42;55.53;98582.56;4933719;29;20094;-70
2021/05/09 07:07:57;;;;;;;7.18;1.63;;;;;;;18.44;56.16;98584.97;4917038;29;20139;-68
2021/05/09 07:10:26;;;;;;;10.20;1.88;;;;;;;18.46;56.38;98575.72;4916452;29;20040;-68
2021/05/09 07:12:54;;;;;;;5.88;1.90;;;;;;;18.48;56.48;98584.25;4931640;29;20064;-67
2021/05/09 07:15:28;;;;;;;5.20;1.85;;;;;;;18.50;57.12;98584.00;4929610;29;20032;-64
2021/05/09 07:18:10;;;;;;;10.83;2.03;;;;;;;18.50;56.92;98590.13;4929957;29;20046;-67
2021/05/09 07:20:38;;;;;;;6.68;1.60;;;;;;;18.52;57.69;98590.69;4927319;29;20365;-68
2021/05/09 07:23:06;;;;;;;9.15;1.77;;;;;;;18.53;57.83;98592.28;4915611;29;20461;-66
2021/05/09 07:25:32;;;;;;;9.75;1.50;;;;;;;18.55;57.99;98584.88;4897414;29;20480;-67
2021/05/09 07:28:14;;;;;;;10.13;1.70;;;;;;;18.52;57.78;98580.06;4930033;29;20510;-69
2021/05/09 07:30:42;;;;;;;11.27;1.65;;;;;;;18.55;57.64;98579.56;4927149;29;20138;-69
2021/05/09 07:33:08;;;;;;;5.45;1.55;;;;;;;18.56;57.87;98570.56;4930130;29;20463;-68
2021/05/09 07:35:34;;;;;;;5.63;1.75;;;;;;;18.58;57.98;98572.16;4913113;29;20074;-68
2021/05/09 07:38:03;;;;;;;7.05;1.42;;;;;;;18.58;58.35;98572.97;4909699;29;20483;-67
2021/05/09 07:40:29;;;;;;;5.53;1.88;;;;;;;18.59;58.41;98571.91;4926041;29;20052;-68
2021/05/09 07:42:55;;;;;;;7.28;2.05;;;;;;;18.59;58.50;98571.91;4925164;29;20866;-67
2021/05/09 07:45:22;;;;;;;11.05;1.92;;;;;;;18.61;58.90;98571.66;4925001;29;20036;-68
2021/05/09 07:47:47;;;;;;;7.68;1.88;;;;;;;18.61;58.86;98569.00;4927017;29;20027;-70
2021/05/09 07:50:15;;;;;;;14.32;1.90;;;;;;;18.61;59.38;98571.66;4929581;29;20365;-69
2021/05/09 07:52:44;;;;;;;8.27;1.95;;;;;;;18.61;59.40;98577.78;4929950;29;20036;-69
2021/05/09 07:55:12;;;;;;;9.13;2.17;;;;;;;18.63;59.54;98561.63;4910449;29;20063;-70
2021/05/09 07:57:37;;;;;;;8.25;2.08;;;;;;;18.63;60.08;98575.75;4911984;29;20043;-70
2021/05/09 08:00:10;;;;;;;6.65;2.47;;;;;;;18.64;60.00;98576.53;4929948;29;20560;-69
2021/05/09 08:02:35;;;;;;;15.02;9.52;;;;;;;18.65;60.28;98573.63;4930137;29;20038;-67
2021/05/09 08:05:01;;;;;;;14.88;7.18;;;;;;;18.66;60.64;98566.47;4928452;29;20043;-66
2021/05/09 08:07:26;;;;;;;29.42;21.65;;;;;;;18.67;60.74;98574.19;4929027;29;20083;-68
2021/05/09 08:09:52;;;;;;;24.33;18.90;;;;;;;18.66;60.71;98583.22;4930995;29;20468;-69
2021/05/09 08:12:17;;;;;;;23.73;13.32;;;;;;;18.68;60.94;98565.19;4913615;29;20043;-68
2021/05/09 08:14:43;;;;;;;20.70;12.15;;;;;;;18.69;61.03;98577.41;4930102;29;20065;-68
2021/05/09 08:17:08;;;;;;;23.30;14.07;;;;;;;18.69;61.06;98581.91;4930339;29;20042;-69
2021/05/09 08:19:34;;;;;;;39.90;24.25;;;;;;;18.70;61.41;98580.88;4898088;29;20036;-68
2021/05/09 08:22:04;;;;;;;38.72;23.05;;;;;;;18.71;61.59;98587.78;4932158;29;20035;-70
2021/05/09 08:24:30;;;;;;;34.38;23.52;;;;;;;18.71;61.36;98588.59;4929805;29;20094;-70
2021/05/09 08:26:55;;;;;;;52.45;35.53;;;;;;;18.72;61.19;98598.16;4914917;29;20128;-68
2021/05/09 08:29:21;;;;;;;38.92;24.65;;;;;;;18.72;61.31;98605.31;4931805;29;20115;-68
2021/05/09 08:31:46;;;;;;;29.13;22.98;;;;;;;18.72;61.16;98594.69;4914759;29;20083;-70
2021/05/09 08:34:12;;;;;;;31.00;21.20;;;;;;;18.72;60.73;98594.69;4932776;29;20043;-67
2021/05/09 08:36:37;;;;;;;27.00;21.10;;;;;;;18.72;60.86;98600.00;4930920;29;20039;-72
2021/05/09 08:39:03;;;;;;;29.67;17.92;;;;;;;18.71;60.37;98612.47;4932567;29;20035;-71
2021/05/09 08:41:29;;;;;;;23.40;18.17;;;;;;;18.71;60.44;98601.06;4923848;29;20124;-71
2021/05/09 08:43:54;;;;;;;17.02;11.43;;;;;;;18.69;59.56;98601.31;4908581;29;20504;-69
2021/05/09 08:46:23;;;;;;;25.10;14.75;;;;;;;18.69;59.73;98611.13;4915529;29;20062;-70
2021/05/09 08:48:51;;;;;;;20.20;11.80;;;;;;;18.69;59.75;98595.19;4929217;29;20035;-69
2021/05/09 08:51:17;;;;;;;18.92;11.95;;;;;;;18.67;59.35;98586.66;4929131;29;20040;-69
2021/05/09 08:53:43;;;;;;;21.60;12.98;;;;;;;18.67;59.01;98586.66;4929445;29;20051;-72
2021/05/09 08:56:10;;;;;;;18.30;10.52;;;;;;;18.66;58.86;98579.75;4899859;29;20053;-71
2021/05/09 08:58:38;;;;;;;26.15;12.63;;;;;;;18.64;59.02;98577.34;4931919;29;20043;-71
2021/05/09 09:01:04;;;;;;;19.45;8.50;;;;;;;18.63;58.45;98575.75;4931881;29;20067;-72
2021/05/09 09:03:32;;;;;;;15.35;10.63;;;;;;;18.62;58.22;98562.66;4917198;29;20139;-71
2021/05/09 09:05:58;;;;;;;15.05;9.88;;;;;;;18.60;58.36;98552.28;4922502;29;20174;-71
2021/05/09 09:08:24;;;;;;;17.15;7.03;;;;;;;18.60;57.44;98567.41;4904110;29;20194;-72
2021/05/09 09:10:51;;;;;;;19.50;7.65;;;;;;;18.57;57.23;98574.00;4918565;29;20036;-71
2021/05/09 09:13:24;;;;;;;14.02;7.05;;;;;;;18.54;56.62;98580.63;4921221;29;20066;-71
2021/05/09 09:16:00;;;;;;;16.52;7.13;;;;;;;18.52;56.49;98577.41;4927119;29;20023;-71
2021/05/09 09:18:42;;;;;;;17.10;7.55;;;;;;;18.49;56.55;98569.94;4901614;29;20042;-71
2021/05/09 09:21:33;;;;;;;14.93;7.60;;;;;;;18.46;56.51;98570.41;4925778;29;21436;-71
2021/05/09 09:24:10;;;;;;;18.88;7.22;;;;;;;18.48;56.86;98573.63;4911838;29;20058;-71
2021/05/09 09:26:47;;;;;;;20.23;6.90;;;;;;;18.48;56.41;98565.66;4899405;29;20036;-69
2021/05/09 09:29:28;;;;;;;17.10;7.35;;;;;;;18.44;56.28;98564.53;4925985;29;20118;-67
2021/05/09 09:32:06;;;;;;;18.48;7.30;;;;;;;18.46;56.31;98575.72;4924856;29;20040;-67
2021/05/09 09:34:50;;;;;;;22.75;5.75;;;;;;;18.42;55.88;98574.59;4926538;29;20035;-66
2021/05/09 09:37:20;;;;;;;17.98;5.35;;;;;;;18.41;55.80;98577.50;4929789;29;20479;-67
2021/05/09 09:39:45;;;;;;;17.98;5.22;;;;;;;18.38;55.80;98573.47;4925751;29;20166;-68
2021/05/09 09:42:11;;;;;;;18.80;5.45;;;;;;;18.35;55.46;98571.31;4927484;29;20177;-66
2021/05/09 09:44:36;;;;;;;12.90;4.85;;;;;;;18.33;55.21;98584.03;4919787;29;20639;-68
2021/05/09 09:47:02;;;;;;;21.75;5.07;;;;;;;18.31;55.32;98583.47;4923135;29;20056;-67
2021/05/09 09:49:30;;;;;;;21.20;4.70;;;;;;;18.27;55.18;98571.69;4925004;29;20449;-67
2021/05/09 09:51:57;;;;;;;18.05;4.35;;;;;;;18.26;54.82;98565.59;4919180;29;20131;-68
2021/05/09 09:54:33;;;;;;;14.82;4.10;;;;;;;18.22;54.78;98571.63;4921703;29;20093;-66
2021/05/09 09:57:00;;;;;;;17.17;4.05;;;;;;;18.21;54.82;98565.53;4917770;29;20039;-67
2021/05/09 09:59:25;;;;;;;13.70;3.70;;;;;;;18.21;54.46;98572.69;4925930;29;20094;-67
2021/05/09 10:01:51;;;;;;;18.70;4.70;;;;;;;18.18;54.28;98571.31;4913666;29;20040;-67
2021/05/09 10:04:17;;;;;;;14.98;3.70;;;;;;;18.18;54.08;98568.66;4931508;29;20535;-67
2021/05/09 10:06:42;;;;;;;10.73;3.50;;;;;;;18.17;54.55;98571.56;4929602;29;20051;-67
2021/05/09 10:09:09;;;;;;;13.88;3.47;;;;;;;18.18;54.24;98573.16;4891521;29;20036;-67
2021/05/09 10:11:35;;;;;;;15.27;3.38;;;;;;;18.17;54.26;98561.75;4922930;29;20150;-67
2021/05/09 10:14:01;;;;;;;13.32;3.50;;;;;;;18.16;54.03;98565.44;4925616;29;20451;-67
2021/05/09 10:16:34;;;;;;;11.40;3.08;;;;;;;18.15;53.64;98563.84;4924365;29;20070;-67
2021/05/09 10:19:10;;;;;;;15.38;3.33;;;;;;;18.14;53.38;98569.38;4918787;29;20068;-68
2021/05/09 10:21:40;;;;;;;15.50;3.60;;;;;;;18.13;53.13;98565.91;4919008;29;20601;-67
2021/05/09 10:24:24;;;;;;;11.80;2.67;;;;;;;18.10;53.04;98560.28;4924930;29;20048;-67
2021/05/09 10:27:10;;;;;;;10.68;2.78;;;;;;;18.07;53.16;98558.13;4925602;29;20099;-68
2021/05/09 10:29:37;;;;;;;17.75;3.20;;;;;;;18.09;53.19;98545.41;4921510;29;20051;-67
2021/05/09 10:32:17;;;;;;;11.40;2.70;;;;;;;18.07;52.77;98547.50;4930792;29;20020;-71
2021/05/09 10:34:56;;;;;;;11.45;3.05;;;;;;;18.06;52.40;98537.94;4910316;29;20044;-66
2021/05/09 10:40:23;;;;;;;11.05;2.42;;;;;;;18.03;52.11;98563.13;4921979;29;20472;-67
2021/05/09 10:43:11;;;;;;;10.80;2.65;;;;;;;18.01;52.16;98572.38;4915143;29;20527;-67
2021/05/09 10:45:37;;;;;;;8.48;2.50;;;;;;;18.04;51.98;98555.97;4913775;29;20573;-67
2021/05/09 10:48:21;;;;;;;12.45;2.58;;;;;;;18.01;52.33;98548.50;4915683;29;20024;-67
2021/05/09 10:51:02;;;;;;;12.75;2.78;;;;;;;18.01;52.05;98551.13;4924187;29;20023;-67
2021/05/09 10:53:33;;;;;;;13.68;2.90;;;;;;;18.00;52.23;98546.88;4913798;29;20059;-68
2021/05/09 10:56:04;;;;;;;10.15;2.53;;;;;;;18.00;52.04;98557.50;4913955;29;20036;-67
2021/05/09 10:58:39;;;;;;;12.18;2.40;;;;;;;17.99;51.77;98556.69;4919040;29;20047;-67
2021/05/09 11:01:07;;;;;;;9.20;2.28;;;;;;;17.99;51.76;98550.56;4913569;29;20135;-67
2021/05/09 11:03:36;;;;;;;11.88;2.70;;;;;;;18.00;51.74;98546.88;4926203;29;20036;-66
2021/05/09 11:06:15;;;;;;;8.63;2.47;;;;;;;17.99;52.05;98540.78;4928112;29;20061;-67
2021/05/09 11:09:02;;;;;;;10.05;2.45;;;;;;;18.00;52.16;98536.28;4938956;29;20080;-67
2021/05/09 11:11:27;;;;;;;12.13;2.40;;;;;;;18.00;51.72;98544.22;4923354;29;20067;-67
2021/05/09 11:13:56;;;;;;;11.00;2.63;;;;;;;18.01;51.92;98543.19;4933970;29;20099;-67
2021/05/09 11:16:21;;;;;;;9.73;2.53;;;;;;;18.01;51.75;98535.22;4927046;29;20103;-70
2021/05/09 11:18:59;;;;;;;10.82;2.40;;;;;;;17.99;51.51;98530.16;4922805;29;20130;-66
2021/05/09 11:21:27;;;;;;;10.85;2.40;;;;;;;18.02;51.58;98528.88;4925173;29;20027;-67
2021/05/09 11:23:53;;;;;;;10.52;2.30;;;;;;;18.00;51.42;98529.13;4906166;29;20032;-67
2021/05/09 11:26:30;;;;;;;8.90;2.17;;;;;;;17.98;51.49;98531.19;4923759;29;20395;-69
2021/05/09 11:29:12;;;;;;;10.65;3.25;;;;;;;18.00;51.67;98538.94;4929239;29;20047;-67
2021/05/09 11:31:46;;;;;;;9.10;2.53;;;;;;;18.01;51.57;98533.38;4909948;29;20047;-71
2021/05/09 11:34:13;;;;;;;11.68;2.90;;;;;;;18.02;51.23;98534.97;4921065;29;20083;-66